Weather observations for the past three days for
Falfurrias, Brooks County Airport
Imperial (Metric)
Date Time (cdt) Wind (mph) Vis. (mi.) Weather Sky Cond. Temperature (ºF) Relative Humidity Wind Chill (°F) Heat Index (°F) Pressure Precipitation (in)
Air Dwpt 6 hour altimeter (in) sea level (mb) 1 hr 3 hr 6 hr
Max. Min.
01 11:15 SE 10 10.00 Fair CLR 93.7 70.9 47% 101 29.96 0.0
01 10:55 S 12 10.00 Fair CLR 92.1 71.8 52% 100 29.96 0.0
01 10:35 S 12 10.00 Fair CLR 90.7 73.4 57% 100 29.96 0.0
01 10:15 S 13 10.00 Fair CLR 89.1 74.8 63% 99 29.97 0.0
01 09:55 SE 10 10.00 Fair CLR 86.9 76.3 71% 98 29.97 0.0
01 09:35 S 9 10.00 Fair CLR 85.3 77.7 78% 97 29.97 0.0
01 09:15 SE 10 10.00 Fair CLR 82.8 78.4 87% 93 29.96 0.0
01 08:55 Calm 10.00 Fair CLR 80.1 78.8 96% 87 29.96 0.0
01 08:35 Calm 10.00 Fair CLR 78.8 78.3 98% 83 29.96 0.0
01 08:15 SE 3 9.00 Fair CLR 77.4 76.6 98% 79 29.96 0.0
01 07:55 E 3 7.00 Fair CLR 76.1 75.4 98% 75 29.95 0.0
01 07:35 E 5 8.00 Fair CLR 75.2 74.5 98% 73 29.95 0.0
01 07:15 E 5 8.00 Fair CLR 74.8 73.9 97% 29.95 0.0
01 06:55 E 5 9.00 Fair CLR 75.2 74.3 97% 73 29.94 0.0
01 06:35 E 5 9.00 Fair CLR 75.2 73.9 96% 73 29.94 0.0
01 06:15 E 5 9.00 Fair CLR 75.2 74.1 96% 73 29.94 0.0
01 05:55 E 5 9.00 Fair CLR 75.6 74.3 96% 74 29.94 0.0
01 05:35 E 5 9.00 Fair CLR 75.7 74.1 95% 75 29.94 0.0
01 05:15 E 5 9.00 Fair CLR 75.9 74.1 94% 75 29.94 0.0
01 04:55 NE 5 10.00 Fair CLR 76.1 74.3 94% 76 29.94 0.0
01 04:35 NE 5 10.00 Fair CLR 76.1 74.3 94% 76 29.94 0.0
01 04:15 E 3 10.00 Fair CLR 76.6 74.8 94% 77 29.93 0.0
01 03:55 E 5 10.00 Fair CLR 77 74.8 93% 78 29.94 0.0
01 03:35 E 3 10.00 Fair CLR 77.2 74.7 92% 79 29.94 0.0
01 03:15 E 3 10.00 Fair CLR 77.7 74.7 90% 80 29.94 0.0
01 02:55 E 3 10.00 Fair CLR 78.6 75.7 91% 82 29.94 0.0
01 02:35 SE 5 10.00 Fair CLR 79.2 75.9 90% 83 29.94 0.0
01 02:15 SE 3 10.00 Fair CLR 79.7 76.5 90% 85 29.95 0.0
01 01:55 SE 5 10.00 Fair CLR 80.1 76.5 89% 86 29.95 0.0
01 01:35 SE 5 10.00 Fair CLR 80.4 76.5 88% 86 29.96 0.0
01 01:15 SE 5 10.00 Fair CLR 80.8 76.6 87% 87 29.95 0.0
01 00:55 SE 5 10.00 Fair CLR 81.3 76.8 86% 89 29.96 0.0
01 00:35 SE 5 10.00 Fair CLR 81.9 77.2 86% 90 29.96 0.0
01 00:15 SE 7 10.00 Fair CLR 82.4 77.4 85% 91 29.96 0.0
31 23:55 SE 8 10.00 Fair CLR 82.8 77.4 84% 92 29.96 0.0
31 23:35 SE 6 10.00 Fair CLR 82.9 77.7 84% 93 29.96 0.0
31 23:15 SE 7 10.00 Fair CLR 83.3 78.1 84% 94 29.96 0.0
31 22:55 SE 8 10.00 Fair CLR 83.7 78.4 84% 95 29.96 0.0
31 22:35 SE 10 10.00 Fair CLR 84 78.6 84% 96 29.95 0.0
31 22:15 SE 10 10.00 Fair CLR 84.4 78.6 83% 96 29.95 0.0
31 21:55 SE 13 10.00 Fair CLR 84.6 78.4 82% 96 29.93 0.0
31 21:35 SE 12 10.00 Fair CLR 84.9 78.3 81% 97 29.92 0.0
31 21:15 SE 12 10.00 Fair CLR 85.3 78.1 79% 97 29.92 0.0
31 20:55 SE 13 10.00 Fair CLR 85.8 77.7 77% 98 29.91 0.0
31 20:35 SE 14 G 22 10.00 Fair CLR 86.5 77.2 74% 98 29.91 0.0
31 20:15 SE 15 G 22 10.00 Fair CLR 87.6 76.1 69% 99 29.89 0.0
31 19:55 SE 16 10.00 Fair CLR 88.5 75 64% 99 29.88 0.0
31 19:35 SE 14 G 23 10.00 Fair CLR 89.8 74.3 60% 99 29.88 0.0
31 19:15 E 16 10.00 Fair CLR 91 73.6 57% 100 29.87 0.0
31 18:55 E 16 G 25 10.00 Fair CLR 92.1 73.2 54% 101 29.87 0.0
31 18:35 E 15 G 23 10.00 Fair CLR 93.6 74.5 54% 104 29.86 0.0
31 18:15 SE 18 G 24 10.00 Fair CLR 94.5 74.3 52% 105 29.86 0.0
31 17:55 E 15 G 22 10.00 Fair CLR 96.1 73.9 49% 107 29.86 0.0
31 17:35 SE 16 G 23 10.00 Fair CLR 97.3 72.5 45% 107 29.86 0.0
31 17:15 SE 16 G 23 10.00 Fair CLR 97.9 72.7 44% 108 29.86 0.0
31 16:55 E 16 G 24 10.00 Fair CLR 99.5 72.9 42% 110 29.86 0.0
31 16:35 SE 16 G 22 10.00 Fair CLR 100.6 71.1 39% 109 29.86 0.0
31 16:15 E 15 G 23 10.00 Fair CLR 99.3 70.9 40% 108 29.86 0.0
31 15:55 E 10 G 20 10.00 Fair CLR 98.8 70.9 41% 107 29.87 0.0
31 15:35 E 14 10.00 Fair CLR 102 71.6 38% 112 29.87 0.0
31 15:15 SE 9 10.00 A Few Clouds FEW360 102.4 61.3 26% 104 29.88 0.0
31 14:55 SE 10 G 17 10.00 A Few Clouds FEW350 102.6 62.4 27% 105 29.89 0.0
31 14:35 SE 8 10.00 A Few Clouds FEW350 103.6 59.5 23% 104 29.9 0.0
31 14:15 Vrbl 3 10.00 A Few Clouds FEW350 102.7 61.7 26% 105 29.91 0.0
31 13:55 S 9 G 20 10.00 A Few Clouds FEW370 102.2 63 28% 105 29.92 0.0
31 13:35 E 6 10.00 A Few Clouds FEW370 101.7 62.6 28% 104 29.92 0.0
31 13:15 SE 10 G 21 10.00 A Few Clouds FEW330 100.6 64.4 31% 104 29.93 0.0
31 12:35 SE 9 G 18 10.00 Fair CLR 99.9 66 33% 104 29.95 0.0
31 12:15 SE 7 G 16 10.00 A Few Clouds FEW330 97.7 66.6 36% 102 29.96 0.0
31 11:55 S 8 10.00 Fair CLR 96.4 68.4 40% 102 29.96 0.0
31 11:35 SW 10 10.00 Fair CLR 95.2 69.3 43% 101 29.96 0.0
31 11:15 S 12 10.00 Fair CLR 93.9 72 49% 102 29.96 0.0
31 10:55 S 15 G 20 10.00 Fair CLR 93.2 73.2 52% 103 29.96 0.0
31 10:35 S 14 10.00 Fair CLR 91.4 73.9 57% 101 29.96 0.0
31 10:15 S 13 10.00 Fair CLR 90 74.7 61% 100 29.96 0.0
31 09:55 S 14 10.00 Fair CLR 88.5 75.7 66% 99 29.96 0.0
31 09:35 Calm 10.00 Fair CLR 87.1 77.2 72% 99 29.97 0.0
31 09:15 S 9 10.00 Fair CLR 85.6 78.3 79% 98 29.96 0.0
31 08:55 SE 9 10.00 Fair CLR 83.5 79 86% 95 29.95 0.0
31 08:35 SE 8 10.00 Fair CLR 81.1 79.3 94% 90 29.95 0.0
31 08:15 SE 6 9.00 Fair CLR 79.3 78.4 97% 85 29.95 0.0
31 07:55 SE 6 8.00 Fair CLR 77.9 77 97% 80 29.94 0.0
31 07:35 E 3 8.00 Fair CLR 77.2 76.1 96% 78 29.94 0.0
31 07:15 E 3 8.00 Fair CLR 77 75.7 96% 78 29.93 0.0
31 06:55 E 3 10.00 Fair CLR 77.4 76.1 96% 79 29.93 0.0
31 06:35 E 3 10.00 Fair CLR 77.5 76.3 96% 79 29.92 0.0
31 06:15 SE 5 10.00 Fair CLR 78.1 76.8 96% 81 29.92 0.0
31 05:55 E 5 10.00 Fair CLR 77.9 76.3 95% 80 29.92 0.0
31 05:35 E 3 10.00 Fair CLR 78.1 76.5 95% 81 29.92 0.0
31 05:15 E 3 10.00 Fair CLR 78.4 76.8 95% 82 29.93 0.0
31 04:55 E 3 10.00 Fair CLR 78.6 77 95% 82 29.93 0.0
31 04:35 E 3 10.00 Fair CLR 78.8 77 94% 83 29.93 0.0
31 04:15 E 3 10.00 Fair CLR 78.8 76.6 93% 83 29.93 0.0
31 03:55 E 3 10.00 Fair CLR 78.8 76.3 92% 83 29.93 0.0
31 03:35 E 3 10.00 Fair CLR 79.2 76.5 91% 84 29.93 0.0
31 03:15 E 3 10.00 Fair CLR 79.7 76.8 91% 85 29.93 0.0
31 02:55 E 3 10.00 Fair CLR 80.2 77.2 90% 86 29.94 0.0
31 02:35 SE 3 10.00 Fair CLR 80.8 77.5 90% 88 29.94 0.0
31 02:15 SE 5 10.00 Fair CLR 81.1 77.5 89% 89 29.94 0.0
31 01:55 SE 3 10.00 Fair CLR 81.7 77.7 88% 90 29.95 0.0
31 01:35 SE 5 10.00 Fair CLR 82 77.7 87% 91 29.95 0.0
31 01:15 SE 6 10.00 Fair CLR 82.4 77.7 86% 91 29.95 0.0
31 00:55 SE 6 10.00 Fair CLR 82.8 77.7 85% 92 29.95 0.0
31 00:35 SE 9 10.00 Fair CLR 83.1 78.1 85% 93 29.95 0.0
31 00:15 SE 8 10.00 Fair CLR 83.3 78.3 85% 94 29.95 0.0
30 23:55 SE 8 10.00 Fair CLR 83.5 78.4 85% 94 29.95 0.0
30 23:35 SE 9 10.00 Fair CLR 83.7 78.6 85% 95 29.95 0.0
30 23:15 SE 10 10.00 Fair CLR 83.8 78.6 84% 95 29.94 0.0
30 22:55 SE 13 10.00 Fair CLR 84 78.3 83% 95 29.94 0.0
30 22:35 SE 10 10.00 Fair CLR 84.2 78.3 82% 95 29.93 0.0
30 22:15 SE 10 10.00 Fair CLR 84.4 77.9 81% 95 29.93 0.0
30 21:55 SE 9 10.00 Fair CLR 84.7 77.5 79% 96 29.92 0.0
30 21:35 SE 10 10.00 Fair CLR 85.1 77 77% 96 29.91 0.0
30 21:15 SE 14 10.00 Fair CLR 85.5 76.8 75% 96 29.9 0.0
30 20:55 SE 12 G 20 10.00 Fair CLR 86.2 75.9 72% 96 29.9 0.0
30 20:35 SE 15 G 21 10.00 Fair CLR 86.5 75.2 69% 96 29.89 0.0
30 20:15 SE 10 10.00 Fair CLR 87.1 74.8 67% 96 29.89 0.0
30 19:55 SE 12 G 18 10.00 Fair CLR 87.8 74.7 65% 97 29.88 0.0
30 19:35 SE 15 G 23 10.00 Fair CLR 89.2 75.4 64% 100 29.88 0.0
30 19:15 SE 16 G 24 10.00 Fair CLR 90.9 74.7 59% 101 29.87 0.0
30 18:55 SE 16 G 23 10.00 Fair CLR 91.8 74.7 57% 102 29.87 0.0
30 18:35 SE 13 10.00 Fair CLR 91.6 74.1 57% 102 29.87 0.0
30 18:15 SE 13 G 21 10.00 Fair CLR 92.3 73.9 55% 102 29.87 0.0
30 17:55 E 14 G 22 10.00 Fair CLR 95 74.5 52% 106 29.86 0.0
30 17:35 SE 16 G 24 10.00 Fair CLR 96.4 74.5 49% 108 29.86 0.0
30 17:15 SE 14 G 24 10.00 Fair CLR 96.6 74.3 49% 108 29.85 0.0
30 16:55 SE 16 G 24 10.00 Fair CLR 97.5 74.3 47% 109 29.85 0.0
30 16:35 E 15 G 25 10.00 Fair CLR 97 74.7 49% 109 29.86 0.0
30 16:15 E 20 G 24 10.00 Fair CLR 98.1 73.9 46% 110 29.86 0.0
30 15:55 SE 18 G 24 10.00 Fair CLR 97.9 73.2 45% 108 29.86 0.0
30 15:35 E 12 10.00 Fair CLR 102.9 66.4 31% 108 29.87 0.0
30 15:15 E 9 10.00 A Few Clouds FEW070 101.3 66.4 32% 106 29.88 0.0
30 14:55 SE 8 10.00 A Few Clouds FEW070 100.9 66.2 32% 105 29.89 0.0
30 14:35 Vrbl 6 10.00 A Few Clouds FEW340 102 66.9 32% 107 29.9 0.0
30 14:15 S 10 G 20 10.00 Fair CLR 100.9 66.9 33% 106 29.92 0.0
30 13:55 SE 13 G 20 10.00 Partly Cloudy FEW065 SCT370 99.9 66.7 34% 105 29.93 0.0
30 13:35 SE 12 G 17 10.00 Fair CLR 99.7 68.7 37% 106 29.93 0.0
30 13:15 S 8 G 18 10.00 A Few Clouds FEW060 99.1 67.5 36% 104 29.94 0.0
30 12:55 S 10 10.00 A Few Clouds FEW055 98.2 70.2 40% 106 29.96 0.0
30 12:35 Vrbl 6 10.00 A Few Clouds FEW055 97.2 70.7 42% 105 29.97 0.0
30 12:15 SE 10 10.00 Fair CLR 97.3 71.2 43% 106 29.97 0.0
30 11:55 S 9 10.00 Fair CLR 96.4 70.9 44% 104 29.98 0.0
30 11:35 S 10 10.00 Fair CLR 94.8 71.6 47% 103 29.98 0.0
30 11:15 SE 10 10.00 Fair CLR 93.7 72.7 50% 103 29.99 0.0
30 10:55 SE 9 10.00 Fair CLR 91.9 74.1 56% 102 29.99 0.0
30 10:35 S 10 10.00 Fair CLR 91 75.9 61% 103 29.99 0.0
30 10:15 SE 10 10.00 Fair CLR 89.2 76.8 67% 102 29.99 0.0
30 09:55 SE 10 10.00 Fair CLR 88.2 77.7 71% 101 29.99 0.0
30 09:35 S 9 10.00 Fair CLR 86.7 78.1 76% 100 29.98 0.0
30 09:15 SE 7 10.00 Fair CLR 85.1 78.8 81% 98 29.98 0.0
30 08:55 SE 7 10.00 Fair CLR 83.1 79.5 89% 95 29.98 0.0
30 08:35 SE 6 10.00 Fair CLR 81 79.7 96% 90 29.97 0.0
30 08:15 SE 6 10.00 Fair CLR 79.2 78.6 98% 84 29.97 0.0
30 07:55 SE 5 9.00 Fair CLR 77.9 77.4 98% 80 29.97 0.0
30 07:35 SE 5 9.00 Fair CLR 77.4 76.8 98% 79 29.96 0.0
30 07:15 SE 6 10.00 Fair CLR 77.4 76.8 98% 79 29.96 0.0
30 06:55 E 3 10.00 Fair CLR 77.2 76.6 98% 78 29.96 0.0
30 06:35 SE 5 10.00 Fair CLR 77.2 76.3 97% 78 29.95 0.0
30 06:15 E 5 10.00 Fair CLR 77.2 76.3 97% 78 29.95 0.0
30 05:55 E 6 10.00 Fair CLR 76.8 75.6 96% 77 29.96 0.0
30 05:35 E 5 10.00 Fair CLR 77 75.7 96% 78 29.95 0.0
30 05:15 E 3 10.00 Fair CLR 77.5 76.3 96% 79 29.95 0.0
30 04:55 E 3 10.00 Fair CLR 77.4 76.1 96% 79 29.95 0.0
30 04:35 SE 3 10.00 Fair CLR 77.9 76.6 96% 80 29.95 0.0
30 04:15 E 5 10.00 Fair CLR 78.1 76.5 95% 81 29.95 0.0
30 03:55 E 5 10.00 Fair CLR 78.3 76.6 95% 81 29.96 0.0
30 03:35 SE 3 10.00 Fair CLR 78.4 76.6 94% 82 29.96 0.0
30 03:15 E 3 10.00 Fair CLR 78.6 76.8 94% 82 29.96 0.0
30 02:55 E 3 10.00 Fair CLR 78.8 76.6 93% 83 29.97 0.0
30 02:35 E 3 10.00 Fair CLR 79.2 76.6 92% 84 29.97 0.0
30 02:15 E 5 10.00 Fair CLR 79.5 76.6 91% 84 29.98 0.0
30 01:55 E 3 10.00 Fair CLR 80.1 77.2 91% 86 29.98 0.0
30 01:35 SE 5 10.00 Fair CLR 80.6 77.7 91% 88 29.98 0.0
30 01:15 SE 3 10.00 Fair CLR 81 77.7 90% 88 29.98 0.0
30 00:55 SE 6 10.00 Fair CLR 81.3 77.9 89% 89 29.98 0.0
30 00:35 SE 8 10.00 Fair CLR 81.7 77.9 88% 90 29.98 0.0
30 00:15 SE 9 10.00 Fair CLR 82 77.9 87% 91 29.98 0.0
29 23:55 SE 8 10.00 Fair CLR 82.4 77.9 86% 92 29.98 0.0
29 23:35 SE 9 10.00 Fair CLR 82.6 77.9 86% 92 29.99 0.0
29 23:15 SE 7 10.00 Fair CLR 82.8 77.9 85% 92 29.98 0.0
29 22:55 SE 8 10.00 Fair CLR 83.1 77.7 84% 93 29.98 0.0
29 22:35 SE 7 10.00 Fair CLR 83.5 77.4 82% 93 29.98 0.0
29 22:15 SE 9 10.00 Fair CLR 83.8 77.2 80% 94 29.97 0.0
29 21:55 SE 9 10.00 Fair CLR 84.2 76.6 78% 94 29.97 0.0
29 21:35 SE 10 10.00 Fair CLR 84.9 76.3 75% 95 29.96 0.0
29 21:15 SE 10 10.00 Fair CLR 85.3 75.2 72% 94 29.95 0.0
29 20:55 SE 7 10.00 Fair CLR 85.8 74.7 69% 94 29.95 0.0
29 20:35 SE 9 10.00 Fair CLR 86.4 74.3 67% 95 29.94 0.0
29 20:15 SE 9 9.00 Fair CLR 86.9 74.3 66% 96 29.93 0.0
29 19:55 SE 13 9.00 Fair CLR 87.8 73.6 63% 96 29.93 0.0
29 19:35 SE 13 9.00 Fair CLR 88.9 73.6 61% 97 29.93 0.0
29 19:15 SE 14 9.00 Fair CLR 90.5 72.3 55% 98 29.92 0.0
29 18:55 SE 14 G 22 10.00 Fair CLR 93.6 71.8 49% 101 29.92 0.0
29 18:35 SE 12 10.00 Fair CLR 95.2 70.2 44% 102 29.91 0.0
29 18:15 SE 15 10.00 Fair CLR 95 71.1 46% 102 29.91 0.0
29 17:55 SE 12 G 22 10.00 Fair CLR 96.3 70.5 43% 104 29.9 0.0
29 17:35 SE 12 G 20 10.00 Fair CLR 97.3 70.3 42% 105 29.9 0.0
29 17:15 SE 13 G 20 10.00 Fair CLR 97 70.2 42% 104 29.91 0.0
29 16:55 SE 12 G 20 10.00 Fair CLR 96.6 70.7 43% 104 29.91 0.0
29 16:35 SE 13 10.00 Fair CLR 96.6 71.6 44% 105 29.92 0.0
29 16:15 SE 15 10.00 Fair CLR 96.4 71.6 45% 105 29.93 0.0
29 15:55 SE 16 10.00 Fair CLR 96.3 71.2 44% 104 29.93 0.0
29 15:35 SE 15 G 22 10.00 Fair CLR 97 71.1 43% 105 29.94 0.0
29 15:15 SE 15 G 23 10.00 Fair CLR 97.9 69.3 39% 104 29.95 0.0
29 14:55 SE 15 G 24 10.00 Fair CLR 97.3 71.6 43% 106 29.96 0.0
29 14:35 SE 21 G 26 10.00 Fair and Breezy CLR 97.7 71.8 43% 107 29.97 0.0
29 14:15 SE 13 10.00 A Few Clouds FEW060 97.3 70.9 42% 105 29.97 0.0
29 13:55 SE 14 G 17 10.00 A Few Clouds FEW360 100.4 68.4 35% 107 29.98 0.0
29 13:35 SE 9 10.00 A Few Clouds FEW055 100.6 68.2 35% 107 29.99 0.0
29 13:15 S 8 10.00 A Few Clouds FEW060 98.8 69.3 38% 105 30 0.0
29 12:55 Calm 10.00 A Few Clouds FEW055 99 70 39% 106 30 0.0
29 12:35 Vrbl 3 10.00 Fair CLR 96.6 69.8 42% 103 30.01 0.0
Date Time (cdt) Wind (mph) Vis. (mi.) Weather Sky Cond. Air Dwpt Max. Min. Relative Humidity Wind Chill (°F) Heat Index (°F) altimeter (in) sea level (mb) 1 hr 3 hr 6 hr
6 hour
Temperature (ºF) Pressure Precipitation (in)